Time;durP1;ratioP1;P1;durP2;ratioP2;P2;SDS_P1;SDS_P2;PMS_P1;PMS_P2;Temp;Humidity;BMP_temperature;BMP_pressure;BME280_temperature;BME280_humidity;BME280_pressure;Samples;Min_cycle;Max_cycle;Signal;HPM_P1;HPM_P2
2022/10/08 00:01:20;;;;;;;8.95;2.00;;;13.70;74.80;;;;;;4971654;28;20054;-76
2022/10/08 00:03:50;;;;;;;11.88;2.13;;;13.70;74.60;;;;;;4956207;28;20055;-76
2022/10/08 00:06:18;;;;;;;10.73;2.10;;;13.60;74.80;;;;;;4972370;28;20588;-77
2022/10/08 00:08:49;;;;;;;8.30;2.10;;;13.70;75.10;;;;;;4955531;28;20630;-76
2022/10/08 00:11:21;;;;;;;8.13;2.30;;;13.70;75.00;;;;;;4973351;28;20580;-76
2022/10/08 00:13:49;;;;;;;10.27;2.20;;;13.70;75.10;;;;;;4988112;28;20529;-76
2022/10/08 00:16:18;;;;;;;7.72;2.15;;;13.70;75.10;;;;;;4956056;28;20447;-76
2022/10/08 00:18:47;;;;;;;10.70;2.23;;;13.70;75.20;;;;;;4936259;28;20102;-76
2022/10/08 00:21:16;;;;;;;9.35;2.38;;;13.70;75.10;;;;;;4952196;28;20794;-76
2022/10/08 00:23:45;;;;;;;9.45;2.15;;;13.70;75.40;;;;;;4922673;28;20098;-76
2022/10/08 00:26:14;;;;;;;9.32;2.33;;;13.70;75.60;;;;;;4955245;28;20554;-76
2022/10/08 00:28:44;;;;;;;10.55;2.20;;;13.70;75.90;;;;;;4939288;28;20058;-76
2022/10/08 00:31:15;;;;;;;10.63;2.00;;;13.70;76.20;;;;;;4971504;28;20048;-76
2022/10/08 00:33:42;;;;;;;9.15;2.30;;;13.70;76.30;;;;;;4984636;28;20367;-76
2022/10/08 00:36:12;;;;;;;7.97;2.30;;;13.70;76.60;;;;;;4920569;28;20062;-76
2022/10/08 00:38:39;;;;;;;7.85;2.42;;;13.70;77.10;;;;;;4935919;28;20047;-76
2022/10/08 00:41:16;;;;;;;11.73;2.67;;;13.70;77.20;;;;;;4958872;28;20057;-76
2022/10/08 00:43:46;;;;;;;11.10;2.20;;;13.60;77.50;;;;;;4954948;28;20138;-75
2022/10/08 00:46:24;;;;;;;8.45;2.15;;;13.60;77.50;;;;;;4970984;28;20810;-76
2022/10/08 00:48:55;;;;;;;7.55;2.08;;;13.60;77.70;;;;;;4983203;28;20079;-76
2022/10/08 00:51:23;;;;;;;11.25;2.05;;;13.60;77.70;;;;;;4953270;28;20056;-76
2022/10/08 00:53:51;;;;;;;11.25;2.05;;;13.60;77.60;;;;;;4951678;28;20056;-76
2022/10/08 00:56:18;;;;;;;5.57;1.67;;;13.60;78.00;;;;;;4920277;28;20054;-76
2022/10/08 00:58:46;;;;;;;5.97;1.98;;;13.60;78.20;;;;;;4961629;28;20792;-76
2022/10/08 01:01:13;;;;;;;8.98;2.03;;;13.50;78.30;;;;;;4972570;28;20088;-76
2022/10/08 01:03:40;;;;;;;9.05;2.40;;;13.50;78.60;;;;;;4985613;28;20134;-76
2022/10/08 01:06:15;;;;;;;6.95;1.95;;;13.60;78.80;;;;;;4920253;28;20051;-76
2022/10/08 01:08:51;;;;;;;9.47;2.50;;;13.50;78.90;;;;;;4935907;28;20107;-76
2022/10/08 01:11:33;;;;;;;6.15;2.17;;;13.50;79.00;;;;;;4952023;28;20391;-76
2022/10/08 01:14:08;;;;;;;9.85;2.45;;;13.50;79.30;;;;;;4953388;28;20596;-76
2022/10/08 01:16:45;;;;;;;6.95;2.30;;;13.50;79.60;;;;;;4965628;28;20610;-76
2022/10/08 01:19:34;;;;;;;10.93;2.95;;;13.50;79.90;;;;;;4953261;28;20062;-76
2022/10/08 01:22:12;;;;;;;8.20;2.57;;;13.50;79.90;;;;;;4935443;28;20622;-76
2022/10/08 01:27:33;;;;;;;10.10;2.75;;;13.40;79.90;;;;;;4932516;28;20055;-76
2022/10/08 01:30:04;;;;;;;8.27;2.28;;;13.40;80.40;;;;;;4937945;28;20047;-76
2022/10/08 01:32:38;;;;;;;7.35;2.45;;;13.40;80.50;;;;;;4949422;28;20554;-76
2022/10/08 01:35:09;;;;;;;9.23;2.40;;;13.40;80.40;;;;;;4970837;28;20055;-76
2022/10/08 01:37:40;;;;;;;9.45;2.70;;;13.30;80.50;;;;;;4954591;28;20252;-76
2022/10/08 01:40:13;;;;;;;9.75;2.83;;;13.30;80.70;;;;;;4970230;28;20053;-76
2022/10/08 01:42:42;;;;;;;8.93;2.63;;;13.30;80.80;;;;;;4970556;28;20062;-76
2022/10/08 01:45:14;;;;;;;9.30;2.70;;;13.30;80.80;;;;;;4970065;28;20445;-76
2022/10/08 01:47:44;;;;;;;7.23;2.33;;;13.30;81.00;;;;;;4954181;28;20047;-76
2022/10/08 01:50:16;;;;;;;7.85;2.50;;;13.30;80.90;;;;;;4969273;28;20290;-76
2022/10/08 01:52:48;;;;;;;10.18;2.90;;;13.30;81.00;;;;;;4954329;28;20052;-76
2022/10/08 01:55:29;;;;;;;7.80;2.50;;;13.30;81.20;;;;;;4971232;28;20063;-76
2022/10/08 01:58:04;;;;;;;9.07;2.33;;;13.30;81.00;;;;;;4985639;28;20048;-76
2022/10/08 02:00:32;;;;;;;5.97;2.27;;;13.30;81.10;;;;;;4939108;28;20506;-76
2022/10/08 02:02:59;;;;;;;5.55;1.90;;;13.30;80.80;;;;;;4918766;28;20253;-76
2022/10/08 02:05:31;;;;;;;9.98;2.00;;;13.30;80.80;;;;;;4950609;28;20047;-77
2022/10/08 02:07:57;;;;;;;8.38;2.40;;;13.20;80.80;;;;;;4950521;28;20514;-76
2022/10/08 02:10:26;;;;;;;7.25;2.20;;;13.20;80.70;;;;;;4969587;28;20063;-77
2022/10/08 02:12:53;;;;;;;7.73;2.30;;;13.20;80.80;;;;;;4971696;28;20055;-76
2022/10/08 02:15:26;;;;;;;6.40;2.40;;;13.10;81.00;;;;;;4969761;28;20725;-76
2022/10/08 02:17:58;;;;;;;7.65;2.65;;;13.20;81.50;;;;;;4953638;28;20054;-77
2022/10/08 02:20:33;;;;;;;8.60;2.13;;;13.10;81.30;;;;;;4971617;28;20070;-76
2022/10/08 02:23:06;;;;;;;8.60;2.65;;;13.10;81.40;;;;;;4966299;28;20054;-77
2022/10/08 02:25:36;;;;;;;9.27;2.80;;;13.10;81.40;;;;;;4951758;28;20139;-76
2022/10/08 02:28:10;;;;;;;9.35;2.70;;;13.10;81.80;;;;;;4937795;28;20275;-76
2022/10/08 02:30:42;;;;;;;7.60;2.20;;;13.20;81.90;;;;;;4969720;28;20050;-76
2022/10/08 02:33:15;;;;;;;8.25;2.58;;;13.10;81.80;;;;;;4937454;28;20511;-76
2022/10/08 02:35:46;;;;;;;6.03;2.00;;;13.10;81.70;;;;;;4969731;28;20138;-76
2022/10/08 02:38:17;;;;;;;6.63;2.40;;;13.10;81.70;;;;;;4953832;28;20048;-76
2022/10/08 02:40:49;;;;;;;7.03;2.45;;;13.10;81.80;;;;;;4950988;28;20394;-77
2022/10/08 02:43:21;;;;;;;7.80;2.28;;;13.10;81.90;;;;;;4938977;28;20058;-76
2022/10/08 02:45:53;;;;;;;7.28;2.35;;;13.10;81.90;;;;;;4953302;28;20079;-76
2022/10/08 02:48:26;;;;;;;7.55;2.30;;;13.10;82.20;;;;;;4979007;28;20083;-76
2022/10/08 02:50:56;;;;;;;7.40;2.43;;;13.10;82.10;;;;;;4950187;28;20521;-76
2022/10/08 02:53:25;;;;;;;7.13;2.13;;;13.10;82.00;;;;;;4950236;28;20736;-76
2022/10/08 02:56:03;;;;;;;8.25;2.20;;;13.10;82.10;;;;;;4934354;28;20056;-76
2022/10/08 02:58:31;;;;;;;6.15;1.98;;;13.10;82.00;;;;;;4960991;28;20079;-76
2022/10/08 03:01:06;;;;;;;6.65;1.90;;;13.10;81.90;;;;;;4950104;28;20044;-76
2022/10/08 03:03:37;;;;;;;5.93;1.70;;;13.10;82.00;;;;;;4967837;28;20062;-76
2022/10/08 03:06:06;;;;;;;5.63;1.88;;;13.10;81.90;;;;;;4953535;28;20279;-76
2022/10/08 03:08:37;;;;;;;6.15;1.73;;;13.10;81.80;;;;;;4969329;28;20134;-76
2022/10/08 03:11:05;;;;;;;6.95;1.88;;;13.10;81.80;;;;;;4972952;28;20051;-76
2022/10/08 03:13:35;;;;;;;6.32;1.90;;;13.00;81.70;;;;;;4938971;28;20073;-76
2022/10/08 03:16:06;;;;;;;6.63;1.80;;;13.00;81.70;;;;;;4956522;28;20532;-76
2022/10/08 03:18:33;;;;;;;5.85;1.50;;;13.00;81.70;;;;;;4941265;28;20260;-76
2022/10/08 03:21:00;;;;;;;6.28;1.63;;;13.00;81.70;;;;;;4936768;28;20063;-76
2022/10/08 03:23:28;;;;;;;8.18;1.75;;;13.00;81.60;;;;;;4953343;28;20055;-76
2022/10/08 03:25:55;;;;;;;5.72;1.60;;;12.90;81.50;;;;;;4936945;28;20048;-76
2022/10/08 03:28:22;;;;;;;8.80;1.90;;;12.90;81.60;;;;;;4937029;28;20106;-76
2022/10/08 03:30:49;;;;;;;5.07;1.30;;;12.90;81.60;;;;;;4936286;28;20737;-76
2022/10/08 03:33:17;;;;;;;4.85;1.33;;;12.90;81.60;;;;;;4969402;28;20467;-76
2022/10/08 03:35:45;;;;;;;5.88;1.70;;;12.90;81.80;;;;;;4956272;28;20048;-76
2022/10/08 03:38:14;;;;;;;5.05;1.50;;;12.80;81.70;;;;;;4972259;28;20051;-76
2022/10/08 03:40:41;;;;;;;8.03;1.70;;;12.80;81.60;;;;;;4971890;28;20054;-76
2022/10/08 03:43:08;;;;;;;6.60;1.98;;;12.80;81.90;;;;;;4956175;28;20252;-76
2022/10/08 03:45:35;;;;;;;5.45;1.27;;;12.80;81.80;;;;;;4972407;28;20130;-76
2022/10/08 03:48:01;;;;;;;6.50;1.58;;;12.70;81.80;;;;;;4969889;28;20047;-76
2022/10/08 03:50:30;;;;;;;4.13;1.42;;;12.70;81.80;;;;;;4972258;28;20145;-76
2022/10/08 03:52:57;;;;;;;6.67;1.73;;;12.70;82.00;;;;;;4971518;28;20139;-76
2022/10/08 03:55:24;;;;;;;7.20;1.60;;;12.70;81.90;;;;;;4972002;28;20362;-76
2022/10/08 03:57:51;;;;;;;5.95;1.75;;;12.60;82.00;;;;;;4957437;28;20059;-76
2022/10/08 04:00:18;;;;;;;6.93;1.60;;;12.60;82.00;;;;;;4955995;28;20051;-76
2022/10/08 04:02:49;;;;;;;8.27;1.50;;;12.50;82.10;;;;;;4955863;28;20063;-76
2022/10/08 04:05:16;;;;;;;5.37;1.77;;;12.50;82.10;;;;;;4954827;28;20407;-76
2022/10/08 04:07:44;;;;;;;7.70;1.50;;;12.50;82.20;;;;;;4956435;28;20271;-76
2022/10/08 04:10:11;;;;;;;7.35;1.90;;;12.50;82.30;;;;;;4956530;28;20057;-76
2022/10/08 04:12:38;;;;;;;6.10;1.60;;;12.50;82.70;;;;;;4971953;28;20054;-77
2022/10/08 04:15:06;;;;;;;7.80;1.73;;;12.50;82.60;;;;;;4968653;28;20510;-76
2022/10/08 04:17:33;;;;;;;7.87;1.60;;;12.50;82.90;;;;;;4952485;28;20051;-76
2022/10/08 04:20:00;;;;;;;7.57;1.98;;;12.50;82.90;;;;;;4953869;28;20845;-76
2022/10/08 04:22:27;;;;;;;7.53;1.83;;;12.50;83.20;;;;;;4958243;28;20536;-76
2022/10/08 04:24:55;;;;;;;7.55;1.92;;;12.50;83.10;;;;;;4955125;28;20058;-76
2022/10/08 04:27:22;;;;;;;5.65;1.63;;;12.50;83.30;;;;;;4971800;28;20048;-76
2022/10/08 04:29:49;;;;;;;8.23;2.10;;;12.50;83.20;;;;;;4970900;28;20043;-76
2022/10/08 04:32:16;;;;;;;6.82;1.90;;;12.50;83.30;;;;;;4920142;28;20267;-76
2022/10/08 04:34:43;;;;;;;6.28;1.90;;;12.50;83.70;;;;;;4936484;28;20064;-76
2022/10/08 04:37:10;;;;;;;7.88;2.00;;;12.50;83.70;;;;;;4952587;28;20184;-76
2022/10/08 04:39:37;;;;;;;6.63;1.83;;;12.50;83.90;;;;;;4952827;28;20079;-76
2022/10/08 04:42:05;;;;;;;7.60;2.20;;;12.50;84.20;;;;;;4968051;28;20142;-76
2022/10/08 04:44:32;;;;;;;9.05;1.70;;;12.50;84.20;;;;;;4955071;28;20271;-76
2022/10/08 04:46:59;;;;;;;6.55;1.70;;;12.50;84.40;;;;;;4972797;28;20047;-76
2022/10/08 04:49:27;;;;;;;7.38;1.80;;;12.50;84.30;;;;;;4954979;28;20051;-76
2022/10/08 04:51:54;;;;;;;6.10;1.55;;;12.50;84.30;;;;;;4939108;28;20083;-76
2022/10/08 04:54:21;;;;;;;8.73;1.83;;;12.50;84.50;;;;;;4954900;28;20066;-76
2022/10/08 04:56:48;;;;;;;7.78;1.80;;;12.50;84.40;;;;;;4953366;28;20246;-76
2022/10/08 04:59:16;;;;;;;6.32;1.92;;;12.50;84.60;;;;;;4968266;28;20492;-76
2022/10/08 05:01:43;;;;;;;8.00;2.05;;;12.50;84.70;;;;;;4935791;28;20107;-76
2022/10/08 05:04:10;;;;;;;6.80;2.00;;;12.50;85.00;;;;;;4935613;28;20058;-76
2022/10/08 05:06:37;;;;;;;8.67;2.00;;;12.50;85.10;;;;;;4953348;28;20058;-76
2022/10/08 05:09:04;;;;;;;8.63;2.00;;;12.50;84.80;;;;;;4938473;28;20247;-77
2022/10/08 05:11:32;;;;;;;7.57;1.70;;;12.50;84.70;;;;;;4972031;28;20051;-77
2022/10/08 05:13:59;;;;;;;5.68;1.90;;;12.50;84.90;;;;;;4960305;28;20047;-76
2022/10/08 05:16:28;;;;;;;6.68;1.80;;;12.50;84.70;;;;;;4951454;28;20059;-76
2022/10/08 05:18:56;;;;;;;5.27;1.30;;;12.50;84.70;;;;;;4960281;28;20051;-77
2022/10/08 05:21:24;;;;;;;5.97;1.52;;;12.50;84.70;;;;;;4971143;28;20256;-76
2022/10/08 05:23:54;;;;;;;8.90;1.60;;;12.50;84.60;;;;;;4954464;28;20317;-76
2022/10/08 05:26:23;;;;;;;6.10;1.70;;;12.50;84.60;;;;;;4970447;28;20624;-77
2022/10/08 05:28:54;;;;;;;10.05;1.63;;;12.50;84.40;;;;;;4954268;28;20632;-76
2022/10/08 05:31:21;;;;;;;8.03;1.40;;;12.40;84.40;;;;;;4967877;28;20477;-76
2022/10/08 05:33:50;;;;;;;6.72;1.40;;;12.40;84.20;;;;;;4971412;28;20275;-76
2022/10/08 05:36:18;;;;;;;7.57;1.40;;;12.40;84.40;;;;;;4970335;28;20081;-76
2022/10/08 05:38:45;;;;;;;8.35;1.65;;;12.30;84.20;;;;;;4954506;28;20055;-76
2022/10/08 05:41:15;;;;;;;6.80;1.30;;;12.30;84.10;;;;;;4970480;28;20059;-76
2022/10/08 05:43:45;;;;;;;5.93;1.40;;;12.30;84.10;;;;;;4954383;28;20501;-76
2022/10/08 05:46:13;;;;;;;7.10;1.20;;;12.30;84.10;;;;;;4970351;28;20248;-76
2022/10/08 05:48:41;;;;;;;7.72;1.40;;;12.30;84.00;;;;;;4950203;28;20760;-76
2022/10/08 05:51:11;;;;;;;7.78;1.42;;;12.30;84.10;;;;;;4937857;28;20040;-76
2022/10/08 05:53:40;;;;;;;7.63;1.55;;;12.30;84.00;;;;;;4954401;28;20055;-76
2022/10/08 05:56:09;;;;;;;8.67;1.80;;;12.30;83.90;;;;;;4972240;28;20047;-76
2022/10/08 05:58:38;;;;;;;6.40;1.23;;;12.30;83.90;;;;;;4953849;28;20267;-76
2022/10/08 06:01:06;;;;;;;8.35;1.63;;;12.20;83.90;;;;;;4952785;28;20057;-76
2022/10/08 06:03:34;;;;;;;5.97;1.25;;;12.20;83.80;;;;;;4971518;28;20138;-76
2022/10/08 06:06:02;;;;;;;7.63;1.90;;;12.20;83.70;;;;;;4934808;28;20495;-76
2022/10/08 06:08:31;;;;;;;6.30;1.80;;;12.20;83.70;;;;;;4969828;28;20055;-76
2022/10/08 06:10:58;;;;;;;5.72;1.33;;;12.20;83.80;;;;;;4969160;28;20266;-76
2022/10/08 06:13:26;;;;;;;8.77;1.88;;;12.20;83.70;;;;;;4953135;28;20067;-76
2022/10/08 06:15:56;;;;;;;8.88;1.73;;;12.10;83.60;;;;;;4970973;28;20055;-76
2022/10/08 06:18:24;;;;;;;8.52;1.85;;;12.10;83.80;;;;;;4951455;28;20056;-77
2022/10/08 06:20:51;;;;;;;9.27;1.87;;;12.10;83.90;;;;;;4959807;28;20070;-76
2022/10/08 06:23:19;;;;;;;7.13;1.85;;;12.10;83.90;;;;;;4950022;28;20279;-76
2022/10/08 06:25:47;;;;;;;7.03;1.60;;;12.10;84.10;;;;;;4952551;28;20142;-76
2022/10/08 06:28:15;;;;;;;7.25;1.75;;;12.00;84.00;;;;;;4952427;28;20058;-76
2022/10/08 06:30:43;;;;;;;6.93;1.70;;;12.00;84.20;;;;;;4951742;28;20052;-76
2022/10/08 06:33:10;;;;;;;5.80;2.03;;;12.00;84.10;;;;;;4952546;28;20569;-77
2022/10/08 06:35:38;;;;;;;9.52;2.15;;;12.00;84.20;;;;;;4968743;28;20255;-75
2022/10/08 06:38:05;;;;;;;9.73;2.42;;;12.00;84.30;;;;;;4951999;28;20058;-75
2022/10/08 06:40:37;;;;;;;7.93;1.75;;;12.00;84.30;;;;;;4982665;28;20505;-75
2022/10/08 06:43:07;;;;;;;7.53;1.90;;;12.00;84.30;;;;;;4946829;28;20577;-76
2022/10/08 06:45:38;;;;;;;7.97;2.10;;;12.00;84.50;;;;;;4949471;28;20058;-76
2022/10/08 06:48:06;;;;;;;10.38;2.30;;;12.00;84.40;;;;;;4969063;28;20259;-76
2022/10/08 06:50:34;;;;;;;7.47;2.13;;;12.00;84.50;;;;;;4952727;28;20055;-76
2022/10/08 06:53:01;;;;;;;6.28;2.00;;;12.00;84.60;;;;;;4951644;28;20146;-76
2022/10/08 06:55:28;;;;;;;10.07;1.98;;;12.00;84.70;;;;;;4970498;28;20055;-80
2022/10/08 06:57:55;;;;;;;11.83;2.33;;;12.00;84.60;;;;;;4952424;28;20059;-77
2022/10/08 07:00:23;;;;;;;7.80;1.80;;;12.00;84.60;;;;;;4966966;28;20342;-76
2022/10/08 07:02:50;;;;;;;7.70;2.00;;;12.00;84.70;;;;;;4948915;28;20138;-76
2022/10/08 07:05:20;;;;;;;9.75;1.90;;;12.00;84.70;;;;;;4951511;28;20631;-76
2022/10/08 07:07:48;;;;;;;7.20;1.77;;;12.00;84.90;;;;;;4952738;28;20720;-75
2022/10/08 07:10:15;;;;;;;6.90;1.93;;;12.00;84.90;;;;;;4969207;28;20059;-75
2022/10/08 07:12:42;;;;;;;6.53;1.67;;;12.00;84.90;;;;;;4969360;28;20669;-76
2022/10/08 07:15:10;;;;;;;9.82;2.03;;;12.00;85.00;;;;;;4968840;28;20102;-76
2022/10/08 07:17:38;;;;;;;7.68;1.80;;;12.00;85.30;;;;;;4968608;28;20418;-80
2022/10/08 07:20:07;;;;;;;7.72;1.92;;;12.00;85.40;;;;;;4977533;28;20138;-76
2022/10/08 07:22:34;;;;;;;8.13;1.67;;;12.00;85.40;;;;;;4938545;28;20062;-76
2022/10/08 07:25:01;;;;;;;6.78;1.55;;;12.00;85.40;;;;;;4968720;28;20331;-76
2022/10/08 07:27:28;;;;;;;9.88;2.08;;;12.10;85.30;;;;;;4968656;28;20518;-76
2022/10/08 07:29:55;;;;;;;8.98;1.70;;;12.10;85.30;;;;;;4952211;28;20067;-81
2022/10/08 07:32:22;;;;;;;6.95;1.65;;;12.10;85.20;;;;;;4952302;28;20047;-77
2022/10/08 07:34:50;;;;;;;6.07;1.40;;;12.10;85.20;;;;;;4966964;28;20163;-77
2022/10/08 07:37:17;;;;;;;6.57;1.23;;;12.10;85.30;;;;;;4969494;28;20264;-77
2022/10/08 07:39:44;;;;;;;9.82;1.38;;;12.10;85.10;;;;;;4955825;28;20522;-77
2022/10/08 07:42:11;;;;;;;7.80;1.23;;;12.20;85.20;;;;;;4968296;28;20055;-77
2022/10/08 07:44:38;;;;;;;7.68;1.20;;;12.20;85.20;;;;;;4963952;28;20582;-77
2022/10/08 07:47:05;;;;;;;12.00;1.73;;;12.20;85.30;;;;;;4933439;28;20055;-76
2022/10/08 07:49:32;;;;;;;6.28;1.55;;;12.30;85.50;;;;;;4931665;28;20268;-77
2022/10/08 07:52:00;;;;;;;11.40;1.98;;;12.30;85.40;;;;;;4947433;28;20051;-77
2022/10/08 07:54:27;;;;;;;10.60;1.85;;;12.30;85.20;;;;;;4949562;28;20062;-77
2022/10/08 07:56:54;;;;;;;9.93;1.70;;;12.30;85.20;;;;;;4967811;28;20051;-77
2022/10/08 07:59:21;;;;;;;7.63;1.30;;;12.40;85.10;;;;;;4953861;28;20047;-77
2022/10/08 08:01:47;;;;;;;7.90;1.63;;;12.50;85.00;;;;;;4971777;28;20302;-77
2022/10/08 08:04:14;;;;;;;6.30;1.25;;;12.50;84.80;;;;;;4939660;28;20146;-76
2022/10/08 08:06:43;;;;;;;6.93;1.30;;;12.50;84.90;;;;;;4973043;28;20094;-77
2022/10/08 08:09:13;;;;;;;8.90;1.63;;;12.50;84.80;;;;;;4970778;28;20522;-77
2022/10/08 08:11:40;;;;;;;7.37;1.40;;;12.50;84.50;;;;;;4955993;28;20055;-77
2022/10/08 08:14:07;;;;;;;9.75;1.33;;;12.50;84.00;;;;;;4972020;28;20331;-77
2022/10/08 08:16:34;;;;;;;12.18;1.58;;;12.50;83.90;;;;;;4973254;28;20063;-77
2022/10/08 08:19:02;;;;;;;11.93;1.88;;;12.60;83.90;;;;;;4955032;28;20470;-77
2022/10/08 08:21:31;;;;;;;11.55;1.75;;;12.70;83.60;;;;;;4971251;28;20130;-77
2022/10/08 08:24:01;;;;;;;7.87;1.33;;;12.70;83.60;;;;;;4955552;28;20055;-77
2022/10/08 08:26:31;;;;;;;8.60;1.75;;;12.70;83.20;;;;;;4971560;28;20256;-77
2022/10/08 08:29:00;;;;;;;9.07;1.55;;;12.80;82.80;;;;;;4934253;28;20515;-77
2022/10/08 08:31:33;;;;;;;7.53;1.35;;;12.80;82.50;;;;;;4939531;28;20433;-77
2022/10/08 08:34:01;;;;;;;11.05;1.50;;;12.90;82.30;;;;;;4955840;28;20509;-77
2022/10/08 08:36:30;;;;;;;8.03;1.80;;;12.90;82.20;;;;;;4973036;28;20090;-77
2022/10/08 08:38:57;;;;;;;8.00;1.50;;;12.90;82.00;;;;;;4972822;28;20315;-77
2022/10/08 08:41:49;;;;;;;9.30;1.58;;;13.00;82.00;;;;;;4970800;28;20510;-77
2022/10/08 08:44:20;;;;;;;7.50;1.73;;;13.10;81.60;;;;;;4954564;28;20137;-77
2022/10/08 08:46:53;;;;;;;10.35;1.30;;;13.10;81.00;;;;;;4952337;28;20119;-77
2022/10/08 08:49:25;;;;;;;11.00;1.70;;;13.10;80.80;;;;;;4952303;28;20491;-77
2022/10/08 08:51:53;;;;;;;12.32;1.30;;;13.10;80.90;;;;;;4955212;28;20856;-77
2022/10/08 08:54:21;;;;;;;6.72;1.10;;;13.20;80.90;;;;;;4955511;28;20158;-77
2022/10/08 08:56:50;;;;;;;7.13;1.00;;;13.30;80.20;;;;;;4955155;28;20054;-77
2022/10/08 08:59:31;;;;;;;7.55;0.75;;;13.30;79.30;;;;;;4972593;28;20083;-77
2022/10/08 09:02:01;;;;;;;6.10;0.90;;;13.30;79.20;;;;;;4970786;28;20648;-77
2022/10/08 09:04:53;;;;;;;8.30;0.80;;;13.40;78.60;;;;;;4972305;28;20278;-77
2022/10/08 09:07:24;;;;;;;8.07;0.60;;;13.50;78.30;;;;;;4971110;28;20079;-77
2022/10/08 09:09:53;;;;;;;4.80;0.70;;;13.50;78.30;;;;;;4966336;28;20056;-77
2022/10/08 09:12:26;;;;;;;5.18;0.70;;;13.50;77.50;;;;;;4935494;28;20060;-77
2022/10/08 09:14:56;;;;;;;7.87;0.73;;;13.50;77.10;;;;;;4951909;28;20467;-77
2022/10/08 09:17:30;;;;;;;7.50;0.68;;;13.60;76.90;;;;;;4935750;28;20842;-77
2022/10/08 09:19:57;;;;;;;6.82;0.80;;;13.60;76.70;;;;;;4956759;28;20244;-77
2022/10/08 09:22:27;;;;;;;5.88;0.73;;;13.60;75.80;;;;;;4955002;28;20047;-77
2022/10/08 09:24:58;;;;;;;5.90;0.80;;;13.70;75.50;;;;;;4965859;28;20147;-77
2022/10/08 09:27:43;;;;;;;5.23;0.70;;;13.70;75.80;;;;;;4951557;28;20052;-77
2022/10/08 09:30:28;;;;;;;5.80;0.70;;;13.80;75.60;;;;;;4952741;28;20286;-77
2022/10/08 09:32:57;;;;;;;6.90;0.70;;;13.90;74.60;;;;;;4952754;28;20150;-77
2022/10/08 09:35:24;;;;;;;4.20;0.52;;;13.90;74.60;;;;;;4953090;28;20060;-77
2022/10/08 09:37:52;;;;;;;4.97;0.55;;;13.90;73.50;;;;;;4952712;28;20785;-77
2022/10/08 09:40:21;;;;;;;9.30;0.77;;;13.90;73.50;;;;;;4953632;28;20055;-77
2022/10/08 09:43:12;;;;;;;3.55;0.50;;;13.90;73.40;;;;;;4972044;28;20283;-76
2022/10/08 09:45:41;;;;;;;6.82;0.60;;;14.00;73.50;;;;;;4971854;28;20049;-77
2022/10/08 09:48:24;;;;;;;6.63;0.95;;;14.00;73.20;;;;;;4972191;28;20082;-77
2022/10/08 09:50:54;;;;;;;6.65;0.50;;;14.00;72.80;;;;;;4953785;28;20058;-77
2022/10/08 09:53:24;;;;;;;6.07;0.77;;;14.10;72.50;;;;;;4970819;28;20087;-77
2022/10/08 09:55:55;;;;;;;7.03;0.57;;;14.10;72.70;;;;;;4953169;28;20267;-77
2022/10/08 09:58:24;;;;;;;6.32;0.68;;;14.10;73.00;;;;;;4970337;28;20066;-77
2022/10/08 10:01:04;;;;;;;3.97;0.70;;;14.10;72.70;;;;;;4961381;28;20162;-77
2022/10/08 10:03:32;;;;;;;5.97;0.93;;;14.20;72.20;;;;;;4970606;28;20565;-77
2022/10/08 10:05:59;;;;;;;4.67;0.43;;;14.20;72.70;;;;;;4949597;28;20531;-77
2022/10/08 10:08:47;;;;;;;5.18;0.45;;;14.20;73.00;;;;;;4935567;28;20267;-78
2022/10/08 10:11:20;;;;;;;3.33;0.47;;;14.20;73.30;;;;;;4951125;28;20044;-77
2022/10/08 10:13:50;;;;;;;6.07;0.55;;;14.20;73.50;;;;;;4965305;28;20090;-78
2022/10/08 10:16:23;;;;;;;8.85;0.80;;;14.20;73.80;;;;;;4954465;28;20055;-78
2022/10/08 10:18:55;;;;;;;7.97;0.80;;;14.20;74.00;;;;;;4947698;28;20059;-78
2022/10/08 10:21:29;;;;;;;5.35;0.80;;;14.20;74.10;;;;;;4969604;28;20338;-77
2022/10/08 10:24:21;;;;;;;8.00;0.80;;;14.10;74.00;;;;;;4944410;28;20048;-78
2022/10/08 10:26:50;;;;;;;5.68;0.63;;;14.10;74.00;;;;;;4935087;28;20059;-77
2022/10/08 10:29:21;;;;;;;5.15;0.80;;;14.10;74.20;;;;;;4935129;28;20896;-77
2022/10/08 10:31:52;;;;;;;3.53;0.50;;;14.10;74.70;;;;;;4932826;28;20142;-77
2022/10/08 10:34:23;;;;;;;5.72;0.95;;;14.10;74.90;;;;;;4969320;28;20362;-77
2022/10/08 10:36:54;;;;;;;4.63;0.70;;;14.20;75.10;;;;;;4970037;28;20054;-77
2022/10/08 10:39:31;;;;;;;8.95;0.80;;;14.20;75.10;;;;;;4937750;28;20133;-77
2022/10/08 10:42:08;;;;;;;6.35;0.88;;;14.20;74.60;;;;;;4969780;28;20058;-77
2022/10/08 10:44:49;;;;;;;7.90;1.10;;;14.10;74.20;;;;;;4953740;28;20055;-77
2022/10/08 10:47:19;;;;;;;6.25;0.57;;;14.20;73.70;;;;;;4969661;28;20798;-78
2022/10/08 10:49:46;;;;;;;5.63;0.73;;;14.20;73.50;;;;;;4953877;28;20093;-77
2022/10/08 10:52:32;;;;;;;5.32;0.60;;;14.20;73.10;;;;;;4969728;28;20075;-77
2022/10/08 10:55:16;;;;;;;7.10;0.63;;;14.30;72.80;;;;;;4934663;28;20482;-77
2022/10/08 10:58:07;;;;;;;8.00;0.97;;;14.30;72.40;;;;;;4952397;28;20130;-77
2022/10/08 11:00:42;;;;;;;8.13;0.80;;;14.40;71.70;;;;;;4932155;28;20264;-77
2022/10/08 11:03:20;;;;;;;6.90;0.60;;;14.40;70.20;;;;;;4950368;28;20575;-77
2022/10/08 11:05:54;;;;;;;5.90;0.50;;;14.40;69.30;;;;;;4941762;28;20597;-77
2022/10/08 11:08:34;;;;;;;4.65;0.68;;;14.40;68.60;;;;;;4958649;28;20451;-77
2022/10/08 11:11:21;;;;;;;7.60;0.60;;;14.30;68.50;;;;;;4970732;28;20142;-77
2022/10/08 11:14:01;;;;;;;5.65;0.80;;;14.30;68.70;;;;;;4965521;28;20419;-77
2022/10/08 11:16:47;;;;;;;5.38;0.65;;;14.30;67.90;;;;;;4951627;28;20058;-77
2022/10/08 11:19:25;;;;;;;6.28;0.50;;;14.30;67.80;;;;;;4949726;28;20051;-77
2022/10/08 11:21:59;;;;;;;5.63;0.70;;;14.30;66.10;;;;;;4934221;28;20083;-77
2022/10/08 11:24:53;;;;;;;5.10;0.60;;;14.30;65.60;;;;;;4934141;28;20075;-77
2022/10/08 11:27:32;;;;;;;6.97;0.60;;;14.20;65.70;;;;;;4959975;28;20313;-77
2022/10/08 11:30:05;;;;;;;4.75;0.52;;;14.20;65.20;;;;;;4969016;28;20053;-76
2022/10/08 11:32:34;;;;;;;4.00;0.50;;;14.20;65.10;;;;;;4972555;28;20154;-77
2022/10/08 11:35:15;;;;;;;7.22;0.75;;;14.10;65.40;;;;;;4954826;28;20052;-77
2022/10/08 11:37:47;;;;;;;2.97;0.40;;;14.10;65.30;;;;;;4921600;28;20051;-77
2022/10/08 11:40:21;;;;;;;4.07;0.47;;;14.10;65.90;;;;;;4938117;28;20259;-77
2022/10/08 11:42:55;;;;;;;3.22;0.30;;;14.20;66.20;;;;;;4956505;28;20422;-76
2022/10/08 11:45:31;;;;;;;5.32;0.60;;;14.20;66.20;;;;;;4972201;28;20134;-77
2022/10/08 11:48:01;;;;;;;6.65;0.77;;;14.30;66.20;;;;;;4967936;28;20060;-77
2022/10/08 11:50:31;;;;;;;7.57;0.77;;;14.40;65.80;;;;;;4954763;28;20081;-77
2022/10/08 11:53:13;;;;;;;9.05;0.70;;;14.50;66.30;;;;;;4954483;28;20260;-77
2022/10/08 11:55:49;;;;;;;4.70;0.47;;;14.60;66.40;;;;;;4953872;28;20063;-77
2022/10/08 11:58:22;;;;;;;6.70;0.70;;;14.60;65.50;;;;;;4941775;28;20098;-76
2022/10/08 12:00:52;;;;;;;7.10;1.02;;;14.70;64.70;;;;;;4973237;28;20070;-76
2022/10/08 12:03:26;;;;;;;7.33;0.60;;;14.80;64.40;;;;;;4958479;28;20549;-77
2022/10/08 12:05:55;;;;;;;5.85;0.60;;;14.80;63.50;;;;;;4971845;28;20244;-77
2022/10/08 12:08:54;;;;;;;7.35;0.90;;;14.80;63.70;;;;;;4967377;28;20052;-76
2022/10/08 12:11:47;;;;;;;5.03;0.60;;;14.80;63.10;;;;;;4936772;28;20048;-77
2022/10/08 12:14:45;;;;;;;7.65;0.60;;;14.80;63.20;;;;;;4936454;28;20058;-77
2022/10/08 12:17:12;;;;;;;7.73;0.97;;;14.80;63.60;;;;;;4968134;28;20055;-77
2022/10/08 12:20:27;;;;;;;6.70;0.70;;;14.80;63.10;;;;;;4957428;28;20703;-77
2022/10/08 12:23:09;;;;;;;4.15;0.55;;;14.90;62.40;;;;;;4935812;28;20062;-77
2022/10/08 12:25:43;;;;;;;3.60;0.50;;;14.80;62.30;;;;;;4920400;28;20059;-77
2022/10/08 12:28:49;;;;;;;5.20;0.50;;;14.80;62.40;;;;;;4920243;28;20554;-76
2022/10/08 12:31:27;;;;;;;6.07;0.60;;;14.80;62.50;;;;;;4935271;28;20052;-77
2022/10/08 12:33:59;;;;;;;6.35;0.60;;;14.80;62.50;;;;;;4960995;28;20726;-77
2022/10/08 12:36:56;;;;;;;6.40;0.68;;;14.90;62.20;;;;;;4955982;28;20047;-77
2022/10/08 12:39:34;;;;;;;4.18;0.50;;;14.90;62.00;;;;;;4959506;28;20079;-77
2022/10/08 12:42:09;;;;;;;6.50;0.73;;;14.90;61.80;;;;;;4953196;28;20122;-77
2022/10/08 12:44:49;;;;;;;6.93;0.73;;;14.90;62.20;;;;;;4952159;28;20055;-76
2022/10/08 12:47:26;;;;;;;4.70;0.60;;;15.00;62.50;;;;;;4936261;28;20256;-77
2022/10/08 12:49:59;;;;;;;9.50;0.65;;;15.00;62.80;;;;;;4951571;28;20087;-77
2022/10/08 12:52:34;;;;;;;6.65;0.57;;;15.00;63.20;;;;;;4952575;28;20061;-77
2022/10/08 12:55:02;;;;;;;5.15;0.63;;;15.20;62.40;;;;;;4921821;28;20051;-77
2022/10/08 12:57:33;;;;;;;7.87;0.67;;;15.30;61.70;;;;;;4935914;28;20055;-76
2022/10/08 13:00:05;;;;;;;4.50;0.45;;;15.30;61.80;;;;;;4968615;28;20318;-77
2022/10/08 13:02:36;;;;;;;5.30;0.50;;;15.40;61.00;;;;;;4954674;28;20059;-77
2022/10/08 13:05:04;;;;;;;4.15;0.65;;;15.50;61.20;;;;;;4970821;28;20059;-77
2022/10/08 13:07:35;;;;;;;4.97;0.60;;;15.50;61.10;;;;;;4955039;28;20043;-77
2022/10/08 13:10:17;;;;;;;6.33;0.60;;;15.60;61.40;;;;;;4970068;28;20143;-77